createdAt,value
2022-08-20T00:01:23.828Z,3.65
2022-08-20T00:03:57.305Z,3.37
2022-08-20T00:06:32.176Z,3.83
2022-08-20T00:11:39.806Z,4.15
2022-08-20T00:14:12.590Z,3.77
2022-08-20T00:16:45.646Z,3.55
2022-08-20T00:19:18.494Z,3.62
2022-08-20T00:21:51.048Z,3.70
2022-08-20T00:24:25.392Z,3.52
2022-08-20T00:26:59.585Z,3.45
2022-08-20T00:29:33.908Z,3.87
2022-08-20T00:32:07.517Z,3.65
2022-08-20T00:34:39.907Z,3.57
2022-08-20T00:37:13.403Z,3.37
2022-08-20T00:39:45.920Z,3.40
2022-08-20T00:42:18.332Z,3.47
2022-08-20T00:44:50.698Z,3.42
2022-08-20T00:47:23.406Z,4.12
2022-08-20T00:49:55.787Z,3.42
2022-08-20T00:52:28.937Z,3.77
2022-08-20T00:55:02.147Z,3.77
2022-08-20T00:58:00.780Z,3.90
2022-08-20T01:00:35.445Z,3.20
2022-08-20T01:03:10.119Z,3.47
2022-08-20T01:05:48.523Z,4.08
2022-08-20T01:08:25.297Z,3.70
2022-08-20T01:11:02.070Z,3.80
2022-08-20T01:13:35.065Z,3.95
2022-08-20T01:16:13.000Z,3.72
2022-08-20T01:18:45.372Z,3.70
2022-08-20T01:21:20.014Z,4.00
2022-08-20T01:24:07.799Z,3.42
2022-08-20T01:26:43.558Z,3.85
2022-08-20T01:29:20.292Z,3.47
2022-08-20T01:31:53.248Z,3.60
2022-08-20T01:34:25.688Z,3.42
2022-08-20T01:36:59.016Z,3.60
2022-08-20T01:39:35.316Z,3.67
2022-08-20T01:42:27.995Z,3.20
2022-08-20T01:45:01.826Z,3.35
2022-08-20T01:47:38.513Z,3.40
2022-08-20T01:50:23.399Z,3.50
2022-08-20T01:53:13.787Z,3.67
2022-08-20T01:55:47.542Z,3.17
2022-08-20T01:58:20.144Z,3.27
2022-08-20T02:00:52.623Z,3.60
2022-08-20T02:03:25.197Z,2.98
2022-08-20T02:05:59.701Z,2.77
2022-08-20T02:08:33.960Z,3.15
2022-08-20T02:11:07.586Z,3.15
2022-08-20T02:13:42.023Z,3.30
2022-08-20T02:16:14.487Z,3.15
2022-08-20T02:18:46.967Z,3.42
2022-08-20T02:21:19.874Z,3.47
2022-08-20T02:23:52.383Z,4.08
2022-08-20T02:26:25.347Z,4.10
2022-08-20T02:28:57.941Z,3.47
2022-08-20T02:31:34.956Z,3.52
2022-08-20T02:34:18.151Z,3.50
2022-08-20T02:36:44.325Z,3.40
2022-08-20T02:39:16.895Z,3.45
2022-08-20T02:41:50.496Z,3.20
2022-08-20T02:44:23.317Z,3.93
2022-08-20T02:46:55.924Z,3.62
2022-08-20T02:49:28.588Z,3.50
2022-08-20T02:52:02.185Z,3.45
2022-08-20T02:54:35.571Z,3.30
2022-08-20T02:57:16.246Z,3.52
2022-08-20T02:59:53.118Z,4.10
2022-08-20T03:02:25.619Z,3.17
2022-08-20T03:04:58.038Z,3.40
2022-08-20T03:07:30.512Z,3.50
2022-08-20T03:10:03.313Z,3.87
2022-08-20T03:12:36.109Z,4.25
2022-08-20T03:15:17.118Z,3.95
2022-08-20T03:17:48.622Z,3.65
2022-08-20T03:20:23.784Z,3.87
2022-08-20T03:22:57.611Z,3.42
2022-08-20T03:25:30.232Z,3.60
2022-08-20T03:28:03.835Z,3.85
2022-08-20T03:30:59.620Z,3.80
2022-08-20T03:33:32.145Z,3.45
2022-08-20T03:36:05.772Z,3.98
2022-08-20T03:38:38.492Z,4.00
2022-08-20T03:41:12.044Z,4.17
2022-08-20T03:43:45.786Z,4.05
2022-08-20T03:46:22.276Z,4.20
2022-08-20T03:48:59.954Z,3.60
2022-08-20T03:51:31.361Z,3.55
2022-08-20T03:54:04.310Z,4.55
2022-08-20T03:56:37.171Z,4.42
2022-08-20T03:59:10.934Z,4.20
2022-08-20T04:01:46.312Z,3.85
2022-08-20T04:04:17.663Z,3.52
2022-08-20T04:06:52.453Z,3.70
2022-08-20T04:09:25.115Z,4.15
2022-08-20T04:12:00.402Z,4.10
2022-08-20T04:14:36.111Z,3.52
2022-08-20T04:17:10.192Z,3.50
2022-08-20T04:19:43.692Z,3.67
2022-08-20T04:22:16.445Z,3.70
2022-08-20T04:24:50.761Z,3.72
2022-08-20T04:27:23.303Z,4.00
2022-08-20T04:29:55.860Z,3.77
2022-08-20T04:32:28.475Z,4.05
2022-08-20T04:35:01.080Z,4.10
2022-08-20T04:37:34.043Z,4.67
2022-08-20T04:40:18.614Z,4.15
2022-08-20T04:45:24.761Z,4.30
2022-08-20T04:47:57.842Z,4.35
2022-08-20T04:50:32.102Z,4.03
2022-08-20T04:53:08.708Z,3.70
2022-08-20T04:55:43.090Z,4.12
2022-08-20T04:58:18.914Z,3.95
2022-08-20T05:00:54.622Z,4.03
2022-08-20T05:03:27.441Z,4.33
2022-08-20T05:06:02.928Z,3.92
2022-08-20T05:08:37.144Z,4.10
2022-08-20T05:11:33.182Z,3.72
2022-08-20T05:13:50.453Z,4.05
2022-08-20T05:16:24.696Z,4.95
2022-08-20T05:18:59.036Z,4.60
2022-08-20T05:21:32.079Z,4.40
2022-08-20T05:24:05.527Z,4.20
2022-08-20T05:26:38.332Z,4.28
2022-08-20T05:29:10.926Z,3.77
2022-08-20T05:31:43.504Z,4.25
2022-08-20T05:34:16.564Z,4.45
2022-08-20T05:36:51.444Z,5.85
2022-08-20T05:39:25.834Z,4.90
2022-08-20T05:41:59.407Z,3.87
2022-08-20T05:47:06.232Z,3.90
2022-08-20T05:49:41.406Z,3.87
2022-08-20T05:54:46.166Z,3.87
2022-08-20T05:57:21.479Z,4.05
2022-08-20T05:59:54.557Z,3.87
2022-08-20T06:02:45.256Z,3.87
2022-08-20T06:05:20.694Z,3.52
2022-08-20T06:07:59.442Z,3.62
2022-08-20T06:10:29.574Z,4.92
2022-08-20T06:13:03.759Z,3.27
2022-08-20T06:15:36.922Z,3.20
2022-08-20T06:18:27.405Z,4.28
2022-08-20T06:20:46.180Z,3.47
2022-08-20T06:23:19.169Z,3.37
2022-08-20T06:25:52.092Z,3.58
2022-08-20T06:28:25.193Z,3.05
2022-08-20T06:30:58.699Z,3.27
2022-08-20T06:33:31.736Z,3.52
2022-08-20T06:36:04.566Z,4.25
2022-08-20T06:38:38.159Z,3.40
2022-08-20T06:41:11.417Z,3.50
2022-08-20T06:43:43.787Z,2.92
2022-08-20T06:46:16.501Z,3.20
2022-08-20T06:48:49.700Z,2.60
2022-08-20T06:51:22.068Z,3.67
2022-08-20T06:53:54.811Z,3.35
2022-08-20T06:56:27.229Z,3.77
2022-08-20T06:59:00.194Z,3.12
2022-08-20T07:01:33.091Z,3.08
2022-08-20T07:04:09.287Z,3.17
2022-08-20T07:06:41.732Z,3.58
2022-08-20T07:09:14.377Z,4.35
2022-08-20T07:11:49.434Z,3.12
2022-08-20T07:14:22.447Z,2.90
2022-08-20T07:16:55.477Z,2.93
2022-08-20T07:19:28.278Z,2.25
2022-08-20T07:22:01.314Z,2.02
2022-08-20T07:24:39.063Z,2.17
2022-08-20T07:27:11.204Z,5.92
2022-08-20T07:30:02.626Z,2.92
2022-08-20T07:32:39.416Z,2.30
2022-08-20T07:35:15.146Z,2.12
2022-08-20T07:38:01.369Z,2.02
2022-08-20T07:40:35.832Z,2.65
2022-08-20T07:43:12.133Z,1.90
2022-08-20T07:45:47.652Z,1.95
2022-08-20T07:48:30.880Z,4.90
2022-08-20T07:50:57.379Z,1.95
2022-08-20T07:53:34.798Z,2.10
2022-08-20T07:56:08.364Z,2.20
2022-08-20T07:58:47.507Z,1.98
2022-08-20T08:01:23.378Z,1.62
2022-08-20T08:03:57.818Z,1.70
2022-08-20T08:06:31.758Z,2.10
2022-08-20T08:09:13.206Z,2.10
2022-08-20T08:11:50.332Z,2.02
2022-08-20T08:14:45.229Z,2.58
2022-08-20T08:17:18.648Z,2.00
2022-08-20T08:19:51.529Z,1.87
2022-08-20T08:22:24.101Z,1.92
2022-08-20T08:24:58.302Z,2.15
2022-08-20T08:27:35.616Z,1.85
2022-08-20T08:30:10.033Z,2.15
2022-08-20T08:32:45.017Z,1.77
2022-08-20T08:35:18.130Z,2.10
2022-08-20T08:37:50.569Z,2.25
2022-08-20T08:40:23.967Z,1.92
2022-08-20T08:42:58.605Z,1.87
2022-08-20T08:45:38.065Z,1.90
2022-08-20T08:48:16.463Z,1.92
2022-08-20T08:50:53.377Z,2.08
2022-08-20T08:53:31.649Z,2.70
2022-08-20T08:56:08.638Z,2.30
2022-08-20T08:58:43.250Z,2.70
2022-08-20T09:01:53.707Z,2.12
2022-08-20T09:03:54.883Z,3.30
2022-08-20T09:06:28.461Z,1.80
2022-08-20T09:09:14.890Z,1.50
2022-08-20T09:11:51.103Z,2.45
2022-08-20T09:14:25.749Z,1.92
2022-08-20T09:16:59.177Z,2.62
2022-08-20T09:19:33.206Z,2.55
2022-08-20T09:22:33.755Z,1.90
2022-08-20T09:25:07.444Z,2.05
2022-08-20T09:27:41.512Z,1.70
2022-08-20T09:30:15.033Z,2.17
2022-08-20T09:32:48.124Z,6.12
2022-08-20T09:35:20.620Z,5.95
2022-08-20T09:37:53.513Z,8.68
2022-08-20T09:40:26.285Z,2.90
2022-08-20T09:42:59.030Z,2.08
2022-08-20T09:45:32.221Z,1.50
2022-08-20T09:48:05.066Z,1.52
2022-08-20T09:50:39.810Z,1.77
2022-08-20T09:53:12.611Z,1.40
2022-08-20T09:55:47.233Z,1.50
2022-08-20T09:58:27.602Z,1.92
2022-08-20T10:01:02.365Z,1.60
2022-08-20T10:03:35.055Z,1.30
2022-08-20T10:08:41.221Z,1.85
2022-08-20T10:11:13.816Z,2.05
2022-08-20T10:13:46.672Z,2.17
2022-08-20T10:16:19.213Z,1.85
2022-08-20T10:18:53.126Z,1.40
2022-08-20T10:21:25.502Z,1.90
2022-08-20T10:23:58.247Z,2.05
2022-08-20T10:26:30.699Z,1.80
2022-08-20T10:29:03.101Z,2.45
2022-08-20T10:31:36.136Z,3.25
2022-08-20T10:34:10.165Z,2.85
2022-08-20T10:36:45.635Z,6.37
2022-08-20T10:39:18.170Z,6.33
2022-08-20T10:41:50.639Z,3.98
2022-08-20T10:44:24.092Z,2.80
2022-08-20T10:46:57.139Z,3.60
2022-08-20T10:49:33.038Z,1.82
2022-08-20T10:52:07.102Z,2.20
2022-08-20T10:54:42.333Z,2.35
2022-08-20T10:57:27.714Z,2.50
2022-08-20T11:00:00.419Z,4.17
2022-08-20T11:02:33.825Z,2.60
2022-08-20T11:05:08.549Z,2.27
2022-08-20T11:07:49.941Z,2.55
2022-08-20T11:10:19.455Z,3.00
2022-08-20T11:15:25.131Z,2.45
2022-08-20T11:17:57.812Z,2.80
2022-08-20T11:20:32.377Z,2.50
2022-08-20T11:23:06.330Z,2.90
2022-08-20T11:25:38.919Z,4.30
2022-08-20T11:28:13.074Z,3.80
2022-08-20T11:30:46.474Z,4.87
2022-08-20T11:33:19.376Z,2.80
2022-08-20T11:35:54.616Z,2.85
2022-08-20T11:38:27.287Z,2.87
2022-08-20T11:40:59.873Z,3.10
2022-08-20T11:43:32.436Z,3.27
2022-08-20T11:46:04.914Z,2.87
2022-08-20T11:48:37.867Z,3.47
2022-08-20T11:51:10.559Z,3.00
2022-08-20T11:53:44.506Z,2.70
2022-08-20T11:56:18.153Z,2.90
2022-08-20T11:58:52.743Z,2.90
2022-08-20T12:01:25.193Z,2.50
2022-08-20T12:03:58.712Z,2.47
2022-08-20T12:06:31.476Z,2.30
2022-08-20T12:09:04.418Z,2.55
2022-08-20T12:11:37.714Z,2.42
2022-08-20T12:14:10.662Z,2.77
2022-08-20T12:16:43.249Z,3.22
2022-08-20T12:19:15.915Z,2.85
2022-08-20T12:21:48.288Z,3.58
2022-08-20T12:24:20.664Z,3.10
2022-08-20T12:26:54.199Z,3.10
2022-08-20T12:29:28.038Z,3.15
2022-08-20T12:32:00.815Z,3.08
2022-08-20T12:34:35.380Z,7.85
2022-08-20T12:37:15.781Z,4.20
2022-08-20T12:39:49.352Z,8.65
2022-08-20T12:42:22.644Z,4.72
2022-08-20T12:44:55.123Z,4.90
2022-08-20T12:47:33.236Z,3.30
2022-08-20T12:50:21.086Z,3.72
2022-08-20T12:52:54.161Z,3.10
2022-08-20T12:55:26.750Z,3.00
2022-08-20T12:58:01.743Z,2.60
2022-08-20T13:03:25.255Z,4.35
2022-08-20T13:06:01.884Z,3.20
2022-08-20T13:08:34.380Z,2.98
2022-08-20T13:11:09.168Z,2.87
2022-08-20T13:13:43.786Z,3.30
2022-08-20T13:16:16.955Z,9.08
2022-08-20T13:18:49.490Z,4.72
2022-08-20T13:21:24.113Z,3.67
2022-08-20T13:23:57.301Z,3.22
2022-08-20T13:26:29.771Z,3.50
2022-08-20T13:29:02.297Z,3.70
2022-08-20T13:31:35.847Z,4.85
2022-08-20T13:34:08.405Z,3.50
2022-08-20T13:36:42.067Z,3.40
2022-08-20T13:39:14.689Z,2.70
2022-08-20T13:41:47.215Z,3.90
2022-08-20T13:44:19.816Z,3.37
2022-08-20T13:46:54.176Z,2.60
2022-08-20T13:49:27.125Z,2.70
2022-08-20T13:52:01.657Z,2.40
2022-08-20T13:54:34.317Z,2.60
2022-08-20T13:57:11.031Z,4.10
2022-08-20T13:59:46.557Z,2.55
2022-08-20T14:02:19.579Z,3.00
2022-08-20T14:04:52.143Z,3.12
2022-08-20T14:07:32.549Z,3.55
2022-08-20T14:10:09.086Z,2.62
2022-08-20T14:12:42.221Z,3.47
2022-08-20T14:15:15.430Z,3.75
2022-08-20T14:17:55.942Z,3.40
2022-08-20T14:20:32.371Z,3.15
2022-08-20T14:23:05.286Z,3.67
2022-08-20T14:25:39.362Z,2.80
2022-08-20T14:28:18.160Z,2.77
2022-08-20T14:30:53.198Z,2.80
2022-08-20T14:33:47.384Z,3.22
2022-08-20T14:36:19.783Z,3.92
2022-08-20T14:38:52.295Z,3.37
2022-08-20T14:41:24.897Z,2.60
2022-08-20T14:43:57.332Z,4.53
2022-08-20T14:46:30.242Z,4.20
2022-08-20T14:49:04.745Z,3.80
2022-08-20T14:51:38.964Z,3.12
2022-08-20T14:54:12.192Z,3.00
2022-08-20T14:56:45.825Z,5.85
2022-08-20T14:59:18.740Z,3.35
2022-08-20T15:01:51.563Z,2.92
2022-08-20T15:04:24.141Z,4.47
2022-08-20T15:07:00.699Z,3.35
2022-08-20T15:09:54.442Z,3.50
2022-08-20T15:12:27.662Z,4.72
2022-08-20T15:15:00.148Z,4.72
2022-08-20T15:17:34.715Z,3.47
2022-08-20T15:20:10.876Z,3.80
2022-08-20T15:22:45.292Z,2.87
2022-08-20T15:25:21.223Z,3.12
2022-08-20T15:28:00.757Z,3.40
2022-08-20T15:30:35.405Z,3.80
2022-08-20T15:33:08.012Z,3.92
2022-08-20T15:35:42.122Z,4.15
2022-08-20T15:38:14.622Z,4.67
2022-08-20T15:40:47.558Z,3.95
2022-08-20T15:43:20.090Z,5.10
2022-08-20T15:45:53.598Z,6.10
2022-08-20T15:48:38.900Z,6.47
2022-08-20T15:51:30.427Z,9.45
2022-08-20T15:54:24.853Z,11.30
2022-08-20T15:57:13.869Z,12.30
2022-08-20T16:00:20.340Z,12.23
2022-08-20T16:03:27.049Z,12.93
2022-08-20T16:09:36.303Z,13.55
2022-08-20T16:12:21.373Z,13.70
2022-08-20T16:14:55.985Z,14.33
2022-08-20T16:17:47.708Z,14.23
2022-08-20T16:20:43.244Z,14.98
2022-08-20T16:23:18.744Z,14.53
2022-08-20T16:25:57.044Z,15.08
2022-08-20T16:28:34.295Z,15.08
2022-08-20T16:31:09.737Z,15.35
2022-08-20T16:34:34.751Z,14.85
2022-08-20T16:37:44.335Z,14.75
2022-08-20T16:40:43.939Z,13.30
2022-08-20T16:43:37.800Z,14.50
2022-08-20T16:46:19.773Z,14.10
2022-08-20T16:48:57.347Z,13.80
2022-08-20T16:51:43.194Z,15.25
2022-08-20T16:54:15.936Z,13.20
2022-08-20T16:56:51.022Z,12.82
2022-08-20T16:59:27.067Z,13.28
2022-08-20T17:02:07.332Z,13.32
2022-08-20T17:04:59.638Z,13.43
2022-08-20T17:07:51.311Z,13.45
2022-08-20T17:10:31.789Z,12.45
2022-08-20T17:13:19.930Z,13.18
2022-08-20T17:16:02.042Z,11.30
2022-08-20T17:19:00.971Z,12.20
2022-08-20T17:21:38.350Z,12.07
2022-08-20T17:24:21.219Z,11.70
2022-08-20T17:27:10.737Z,13.22
2022-08-20T17:29:59.732Z,20.57
2022-08-20T17:32:33.501Z,14.13
2022-08-20T17:35:07.512Z,11.22
2022-08-20T17:37:40.791Z,10.78
2022-08-20T17:40:27.757Z,11.50
2022-08-20T17:43:06.833Z,17.70
2022-08-20T17:45:45.240Z,15.05
2022-08-20T17:48:26.063Z,11.15
2022-08-20T17:51:00.205Z,16.00
2022-08-20T17:53:36.494Z,10.82
2022-08-20T17:56:16.811Z,10.88
2022-08-20T17:59:05.747Z,11.03
2022-08-20T18:01:37.263Z,11.05
2022-08-20T18:04:10.604Z,10.65
2022-08-20T18:07:00.150Z,11.15
2022-08-20T18:09:41.174Z,9.93
2022-08-20T18:12:37.624Z,10.40
2022-08-20T18:15:21.239Z,10.72
2022-08-20T18:18:17.642Z,11.45
2022-08-20T18:21:01.263Z,11.00
2022-08-20T18:23:53.847Z,10.83
2022-08-20T18:26:58.063Z,11.45
2022-08-20T18:29:36.132Z,9.83
2022-08-20T18:32:22.943Z,10.85
2022-08-20T18:34:55.459Z,10.90
2022-08-20T18:37:29.344Z,10.60
2022-08-20T18:40:54.604Z,9.93
2022-08-20T18:43:32.619Z,12.13
2022-08-20T18:46:42.930Z,10.45
2022-08-20T18:49:16.066Z,11.05
2022-08-20T18:51:53.305Z,10.35
2022-08-20T18:54:29.948Z,11.60
2022-08-20T18:57:41.593Z,12.07
2022-08-20T19:00:20.805Z,13.15
2022-08-20T19:03:22.425Z,13.43
2022-08-20T19:06:31.415Z,11.68
2022-08-20T19:09:30.324Z,28.50
2022-08-20T19:12:40.966Z,17.52
2022-08-20T19:15:21.750Z,11.20
2022-08-20T19:18:18.318Z,11.10
2022-08-20T19:20:58.293Z,11.80
2022-08-20T19:23:34.291Z,13.05
2022-08-20T19:26:25.198Z,10.18
2022-08-20T19:29:02.886Z,14.20
2022-08-20T19:31:36.370Z,12.43
2022-08-20T19:34:20.379Z,15.30
2022-08-20T19:36:47.719Z,14.68
2022-08-20T19:39:25.636Z,12.35
2022-08-20T19:42:11.515Z,12.28
2022-08-20T19:44:57.729Z,11.25
2022-08-20T19:47:34.654Z,10.48
2022-08-20T19:50:27.094Z,10.58
2022-08-20T19:53:30.456Z,10.60
2022-08-20T19:56:18.217Z,10.13
2022-08-20T19:59:06.923Z,10.08
2022-08-20T20:01:40.148Z,10.13
2022-08-20T20:04:18.499Z,9.55
2022-08-20T20:06:51.763Z,9.80
2022-08-20T20:09:27.403Z,9.13
2022-08-20T20:12:22.978Z,9.38
2022-08-20T20:14:56.621Z,9.40
2022-08-20T20:17:33.059Z,10.95
2022-08-20T20:20:27.753Z,10.45
2022-08-20T20:23:16.575Z,9.68
2022-08-20T20:25:53.385Z,9.63
2022-08-20T20:28:31.558Z,9.10
2022-08-20T20:31:09.918Z,9.98
2022-08-20T20:33:47.133Z,10.18
2022-08-20T20:36:21.882Z,9.68
2022-08-20T20:39:02.074Z,9.10
2022-08-20T20:41:36.253Z,9.45
2022-08-20T20:44:44.921Z,9.90
2022-08-20T20:47:27.364Z,9.55
2022-08-20T20:50:06.710Z,8.93
2022-08-20T20:52:51.423Z,8.53
2022-08-20T20:58:15.116Z,8.83
2022-08-20T21:00:49.439Z,9.30
2022-08-20T21:03:21.902Z,8.83
2022-08-20T21:05:55.709Z,9.15
2022-08-20T21:08:29.334Z,8.88
2022-08-20T21:11:02.309Z,7.90
2022-08-20T21:13:35.059Z,8.18
2022-08-20T21:16:09.299Z,8.63
2022-08-20T21:18:42.389Z,9.50
2022-08-20T21:21:14.863Z,9.63
2022-08-20T21:23:48.030Z,8.65
2022-08-20T21:26:21.504Z,9.13
2022-08-20T21:28:53.970Z,8.70
2022-08-20T21:31:29.691Z,9.45
2022-08-20T21:34:02.811Z,10.53
2022-08-20T21:36:35.479Z,8.68
2022-08-20T21:39:08.014Z,9.48
2022-08-20T21:41:43.163Z,9.08
2022-08-20T21:44:29.773Z,8.93
2022-08-20T21:47:02.804Z,9.28
2022-08-20T21:49:36.293Z,9.45
2022-08-20T21:52:08.762Z,9.13
2022-08-20T21:54:41.545Z,8.35
2022-08-20T21:57:25.276Z,9.05
2022-08-20T21:59:58.977Z,8.63
2022-08-20T22:02:34.310Z,9.13
2022-08-20T22:05:07.695Z,9.15
2022-08-20T22:07:43.377Z,8.53
2022-08-20T22:10:16.024Z,8.70
2022-08-20T22:12:48.983Z,8.40
2022-08-20T22:15:22.410Z,8.65
2022-08-20T22:17:55.809Z,8.30
2022-08-20T22:20:30.455Z,8.05
2022-08-20T22:23:07.144Z,8.33
2022-08-20T22:25:40.859Z,8.63
2022-08-20T22:28:13.259Z,8.73
2022-08-20T22:30:47.588Z,8.28
2022-08-20T22:33:23.567Z,9.38
2022-08-20T22:35:57.575Z,8.10
2022-08-20T22:41:06.379Z,7.75
2022-08-20T22:43:46.247Z,7.50
2022-08-20T22:46:14.720Z,7.65
2022-08-20T22:51:42.125Z,8.73
2022-08-20T22:54:17.436Z,8.13
2022-08-20T22:56:51.065Z,8.60
2022-08-20T22:59:24.704Z,8.25
2022-08-20T23:01:59.286Z,7.78
2022-08-20T23:04:34.667Z,8.88
2022-08-20T23:07:29.161Z,8.10
2022-08-20T23:10:01.744Z,8.10
2022-08-20T23:12:35.991Z,7.67
2022-08-20T23:15:09.596Z,7.90
2022-08-20T23:17:44.277Z,8.05
2022-08-20T23:20:20.386Z,8.48
2022-08-20T23:22:54.708Z,7.35
2022-08-20T23:25:27.849Z,7.20
2022-08-20T23:28:03.514Z,8.35
2022-08-20T23:30:34.975Z,8.23
2022-08-20T23:35:42.337Z,7.65
2022-08-20T23:38:15.116Z,7.50
2022-08-20T23:40:47.676Z,8.70
2022-08-20T23:43:21.387Z,7.55
2022-08-20T23:45:55.104Z,7.25
2022-08-20T23:48:28.016Z,9.18
2022-08-20T23:51:00.554Z,8.13
2022-08-20T23:53:33.158Z,7.65
2022-08-20T23:56:07.247Z,7.53
2022-08-20T23:58:39.742Z,7.58
